createdAt,value
2017-05-25T00:00:42.544Z,947.5
2017-05-25T00:01:50.752Z,947.5
2017-05-25T00:02:58.719Z,947.5
2017-05-25T00:04:06.912Z,947.5
2017-05-25T00:05:14.895Z,947.5
2017-05-25T00:06:23.072Z,947.5
2017-05-25T00:07:31.184Z,947.6
2017-05-25T00:08:39.151Z,947.5
2017-05-25T00:09:47.325Z,947.5
2017-05-25T00:10:55.336Z,947.5
2017-05-25T00:12:03.411Z,947.5
2017-05-25T00:13:11.615Z,947.5
2017-05-25T00:14:19.583Z,947.5
2017-05-25T00:15:27.790Z,947.5
2017-05-25T00:16:35.753Z,947.5
2017-05-25T00:17:43.840Z,947.5
2017-05-25T00:18:52.053Z,947.4
2017-05-25T00:20:00.018Z,947.5
2017-05-25T00:21:08.106Z,947.5
2017-05-25T00:22:16.208Z,947.5
2017-05-25T00:23:24.279Z,947.5
2017-05-25T00:24:32.564Z,947.5
2017-05-25T00:25:40.456Z,947.5
2017-05-25T00:26:48.534Z,947.5
2017-05-25T00:27:56.718Z,947.4
2017-05-25T00:29:04.718Z,947.4
2017-05-25T00:30:12.925Z,947.5
2017-05-25T00:31:21.011Z,947.5
2017-05-25T00:32:28.979Z,947.4
2017-05-25T00:33:37.063Z,947.4
2017-05-25T00:34:45.149Z,947.4
2017-05-25T00:35:53.366Z,947.4
2017-05-25T00:37:01.321Z,947.4
2017-05-25T00:38:09.407Z,947.3
2017-05-25T00:39:17.637Z,947.3
2017-05-25T00:40:25.581Z,947.3
2017-05-25T00:41:33.791Z,947.3
2017-05-25T00:42:41.764Z,947.4
2017-05-25T00:43:49.922Z,947.3
2017-05-25T00:44:57.934Z,947.3
2017-05-25T00:46:06.126Z,947.3
2017-05-25T00:47:14.215Z,947.3
2017-05-25T00:48:22.184Z,947.3
2017-05-25T00:49:30.270Z,947.3
2017-05-25T00:50:38.359Z,947.3
2017-05-25T00:51:46.513Z,947.3
2017-05-25T00:52:54.653Z,947.3
2017-05-25T00:54:02.615Z,947.2
2017-05-25T00:55:10.699Z,947.2
2017-05-25T00:56:18.784Z,947.2
2017-05-25T00:57:26.884Z,947.2
2017-05-25T00:58:35.125Z,947.2
2017-05-25T00:59:43.045Z,947.2
2017-05-25T01:00:51.134Z,947.3
2017-05-25T01:01:59.394Z,947.2
2017-05-25T01:03:07.429Z,947.2
2017-05-25T01:04:15.511Z,947.2
2017-05-25T01:05:23.477Z,947.2
2017-05-25T01:06:31.566Z,947.2
2017-05-25T01:07:39.650Z,947.2
2017-05-25T01:08:47.739Z,947.2
2017-05-25T01:09:56.060Z,947.2
2017-05-25T01:11:03.914Z,947.2
2017-05-25T01:12:11.997Z,947.2
2017-05-25T01:13:20.085Z,947.2
2017-05-25T01:14:28.278Z,947.2
2017-05-25T01:15:36.487Z,947.1
2017-05-25T01:16:44.347Z,947.1
2017-05-25T01:17:52.429Z,947.1
2017-05-25T01:19:00.632Z,947.1
2017-05-25T01:20:08.603Z,947.1
2017-05-25T01:21:16.805Z,947.2
2017-05-25T01:22:24.775Z,947.2
2017-05-25T01:23:32.863Z,947.1
2017-05-25T01:24:40.948Z,947.1
2017-05-25T01:25:49.029Z,947.1
2017-05-25T01:26:57.241Z,947.1
2017-05-25T01:28:05.204Z,947.1
2017-05-25T01:29:13.296Z,947.1
2017-05-25T01:30:21.375Z,947.0
2017-05-25T01:31:29.471Z,947.1
2017-05-25T01:32:37.673Z,947.0
2017-05-25T01:33:45.639Z,947.1
2017-05-25T01:34:53.851Z,947.1
2017-05-25T01:36:01.827Z,947.1
2017-05-25T01:37:09.906Z,947.0
2017-05-25T01:38:18.112Z,947.0
2017-05-25T01:39:26.079Z,947.0
2017-05-25T01:40:34.167Z,947.0
2017-05-25T01:41:42.252Z,947.0
2017-05-25T01:42:50.339Z,947.0
2017-05-25T01:43:58.742Z,947.1
2017-05-25T01:45:06.510Z,947.1
2017-05-25T01:46:14.596Z,947.0
2017-05-25T01:47:22.683Z,947.0
2017-05-25T01:48:30.767Z,947.0
2017-05-25T01:49:38.911Z,947.0
2017-05-25T01:50:47.190Z,947.0
2017-05-25T01:51:55.025Z,947.0
2017-05-25T01:53:03.113Z,947.0
2017-05-25T01:54:11.199Z,947.0
2017-05-25T01:55:19.405Z,947.0
2017-05-25T01:56:27.416Z,946.9
2017-05-25T01:57:35.508Z,946.9
2017-05-25T01:58:43.545Z,946.9
2017-05-25T01:59:51.632Z,946.9
2017-05-25T02:00:59.775Z,946.9
2017-05-25T02:02:07.800Z,946.9
2017-05-25T02:03:15.898Z,946.9
2017-05-25T02:04:23.977Z,947.0
2017-05-25T02:05:32.061Z,946.9
2017-05-25T02:06:40.269Z,946.9
2017-05-25T02:07:48.235Z,946.9
2017-05-25T02:08:56.326Z,947.0
2017-05-25T02:10:04.407Z,946.9
2017-05-25T02:11:12.493Z,946.9
2017-05-25T02:12:20.699Z,946.9
2017-05-25T02:13:28.663Z,946.9
2017-05-25T02:14:36.751Z,946.9
2017-05-25T02:15:44.843Z,946.9
2017-05-25T02:16:52.930Z,946.9
2017-05-25T02:18:01.137Z,947.0
2017-05-25T02:19:09.101Z,947.0
2017-05-25T02:20:17.185Z,947.0
2017-05-25T02:21:25.271Z,947.0
2017-05-25T02:22:33.414Z,946.9
2017-05-25T02:23:41.566Z,946.9
2017-05-25T02:24:49.532Z,947.0
2017-05-25T02:25:57.688Z,947.0
2017-05-25T02:27:05.705Z,946.9
2017-05-25T02:28:13.792Z,946.9
2017-05-25T02:29:21.996Z,946.9
2017-05-25T02:30:29.960Z,946.9
2017-05-25T02:31:38.052Z,946.9
2017-05-25T02:32:46.310Z,946.8
2017-05-25T02:33:54.263Z,946.9
2017-05-25T02:35:02.426Z,946.9
2017-05-25T02:36:10.394Z,946.9
2017-05-25T02:37:18.489Z,946.9
2017-05-25T02:38:26.721Z,946.9
2017-05-25T02:39:34.652Z,946.9
2017-05-25T02:40:42.857Z,946.9
2017-05-25T02:41:50.825Z,946.9
2017-05-25T02:42:58.909Z,946.9
2017-05-25T02:44:07.051Z,946.9
2017-05-25T02:45:15.148Z,946.9
2017-05-25T02:46:23.344Z,946.9
2017-05-25T02:47:31.258Z,946.9
2017-05-25T02:48:39.349Z,946.9
2017-05-25T02:49:47.428Z,946.9
2017-05-25T02:50:55.516Z,946.9
2017-05-25T02:52:03.719Z,946.9
2017-05-25T02:53:11.686Z,947.0
2017-05-25T02:54:19.901Z,946.9
2017-05-25T02:55:27.858Z,946.9
2017-05-25T02:56:35.946Z,946.9
2017-05-25T02:57:44.102Z,946.9
2017-05-25T02:58:52.120Z,946.9
2017-05-25T03:00:00.205Z,946.9
2017-05-25T03:01:08.288Z,946.9
2017-05-25T03:02:16.376Z,946.8
2017-05-25T03:03:24.583Z,946.8
2017-05-25T03:04:32.548Z,946.9
2017-05-25T03:05:40.643Z,946.9
2017-05-25T03:06:48.721Z,946.9
2017-05-25T03:07:56.977Z,946.9
2017-05-25T03:09:05.019Z,946.9
2017-05-25T03:10:13.039Z,946.8
2017-05-25T03:11:21.071Z,946.9
2017-05-25T03:12:29.161Z,946.9
2017-05-25T03:13:37.396Z,946.9
2017-05-25T03:14:45.547Z,946.9
2017-05-25T03:15:53.417Z,946.8
2017-05-25T03:17:01.503Z,946.9
2017-05-25T03:18:09.591Z,946.9
2017-05-25T03:19:17.674Z,946.9
2017-05-25T03:20:25.957Z,946.9
2017-05-25T03:21:33.848Z,946.9
2017-05-25T03:22:41.934Z,946.9
2017-05-25T03:23:50.021Z,946.9
2017-05-25T03:24:58.107Z,946.9
2017-05-25T03:26:06.317Z,946.9
2017-05-25T03:27:14.301Z,946.9
2017-05-25T03:28:22.364Z,946.9
2017-05-25T03:29:30.447Z,946.9
2017-05-25T03:30:38.536Z,946.9
2017-05-25T03:31:46.741Z,946.9
2017-05-25T03:32:54.710Z,946.9
2017-05-25T03:34:02.794Z,946.9
2017-05-25T03:35:10.880Z,946.9
2017-05-25T03:36:18.968Z,946.9
2017-05-25T03:37:27.355Z,946.9
2017-05-25T03:38:35.139Z,946.9
2017-05-25T03:39:43.221Z,946.9
2017-05-25T03:40:51.311Z,946.9
2017-05-25T03:41:59.518Z,946.9
2017-05-25T03:43:07.769Z,946.8
2017-05-25T03:44:15.652Z,946.9
2017-05-25T03:45:23.654Z,946.9
2017-05-25T03:46:31.743Z,946.9
2017-05-25T03:47:39.828Z,946.9
2017-05-25T03:48:47.970Z,946.9
2017-05-25T03:49:56.144Z,946.9
2017-05-25T03:51:04.086Z,946.9
2017-05-25T03:52:12.172Z,946.9
2017-05-25T03:53:20.255Z,946.9
2017-05-25T03:54:28.464Z,946.9
2017-05-25T03:55:36.486Z,946.9
2017-05-25T03:56:44.579Z,946.9
2017-05-25T03:57:52.727Z,946.9
2017-05-25T03:59:00.685Z,946.9
2017-05-25T04:00:08.828Z,946.8
2017-05-25T04:01:16.859Z,946.8
2017-05-25T04:02:24.972Z,946.8
2017-05-25T04:03:33.032Z,946.8
2017-05-25T04:04:41.118Z,946.8
2017-05-25T04:05:49.260Z,946.9
2017-05-25T04:06:57.288Z,946.9
2017-05-25T04:08:05.373Z,946.9
2017-05-25T04:09:13.460Z,946.9
2017-05-25T04:10:21.547Z,946.8
2017-05-25T04:11:29.752Z,946.9
2017-05-25T04:12:37.898Z,946.8
2017-05-25T04:13:46.016Z,946.8
2017-05-25T04:14:53.895Z,946.8
2017-05-25T04:16:01.986Z,946.8
2017-05-25T04:17:10.185Z,946.8
2017-05-25T04:18:18.147Z,946.8
2017-05-25T04:19:26.337Z,946.7
2017-05-25T04:20:34.320Z,946.7
2017-05-25T04:21:42.418Z,946.7
2017-05-25T04:22:50.610Z,946.7
2017-05-25T04:23:58.578Z,946.7
2017-05-25T04:25:06.664Z,946.7
2017-05-25T04:26:14.752Z,946.7
2017-05-25T04:27:22.836Z,946.7
2017-05-25T04:28:31.042Z,946.7
2017-05-25T04:29:39.126Z,946.8
2017-05-25T04:30:47.158Z,946.8
2017-05-25T04:31:55.179Z,946.7
2017-05-25T04:33:03.283Z,946.7
2017-05-25T04:34:11.476Z,946.8
2017-05-25T04:35:19.438Z,946.8
2017-05-25T04:36:27.525Z,946.8
2017-05-25T04:37:35.610Z,946.7
2017-05-25T04:38:43.696Z,946.7
2017-05-25T04:39:53.295Z,946.8
2017-05-25T04:40:59.918Z,946.7
2017-05-25T04:42:08.070Z,946.8
2017-05-25T04:43:16.048Z,946.8
2017-05-25T04:44:24.134Z,946.8
2017-05-25T04:45:32.340Z,946.8
2017-05-25T04:46:40.305Z,946.8
2017-05-25T04:47:48.466Z,946.8
2017-05-25T04:48:56.574Z,946.8
2017-05-25T04:50:05.028Z,946.8
2017-05-25T04:51:12.703Z,946.7
2017-05-25T04:52:20.734Z,946.7
2017-05-25T04:53:28.820Z,946.8
2017-05-25T04:54:36.925Z,946.8
2017-05-25T04:55:44.994Z,946.8
2017-05-25T04:56:53.199Z,946.8
2017-05-25T04:58:01.163Z,946.8
2017-05-25T04:59:09.253Z,946.8
2017-05-25T05:00:17.336Z,946.8
2017-05-25T05:01:25.493Z,946.8
2017-05-25T05:02:33.630Z,946.8
2017-05-25T05:03:41.598Z,946.8
2017-05-25T05:04:49.852Z,946.8
2017-05-25T05:05:57.768Z,946.8
2017-05-25T05:07:05.854Z,946.8
2017-05-25T05:08:14.759Z,946.8
2017-05-25T05:09:22.026Z,946.8
2017-05-25T05:10:30.112Z,946.8
2017-05-25T05:11:38.313Z,946.8
2017-05-25T05:12:46.437Z,946.8
2017-05-25T05:13:54.426Z,946.8
2017-05-25T05:15:03.733Z,946.8
2017-05-25T05:16:10.567Z,946.8
2017-05-25T05:17:18.826Z,946.8
2017-05-25T05:18:27.137Z,946.8
2017-05-25T05:19:35.011Z,946.8
2017-05-25T05:20:43.385Z,946.8
2017-05-25T05:21:51.252Z,946.8
2017-05-25T05:22:59.060Z,946.8
2017-05-25T05:24:07.562Z,946.8
2017-05-25T05:25:15.350Z,946.8
2017-05-25T05:26:23.319Z,946.8
2017-05-25T05:27:31.401Z,946.9
2017-05-25T05:28:39.490Z,946.9
2017-05-25T05:29:47.571Z,946.9
2017-05-25T05:30:55.778Z,946.9
2017-05-25T05:32:03.745Z,946.9
2017-05-25T05:33:11.899Z,946.9
2017-05-25T05:34:19.920Z,947.0
2017-05-25T05:35:28.004Z,946.9
2017-05-25T05:36:36.208Z,946.9
2017-05-25T05:37:44.173Z,946.9
2017-05-25T05:38:52.260Z,946.9
2017-05-25T05:40:00.593Z,946.9
2017-05-25T05:41:08.431Z,946.9
2017-05-25T05:42:16.765Z,946.8
2017-05-25T05:43:24.853Z,946.8
2017-05-25T05:44:32.689Z,946.8
2017-05-25T05:45:40.781Z,946.8
2017-05-25T05:46:48.950Z,946.9
2017-05-25T05:47:57.004Z,946.8
2017-05-25T05:49:05.153Z,946.8
2017-05-25T05:50:13.115Z,946.8
2017-05-25T05:51:21.207Z,946.8
2017-05-25T05:52:29.295Z,946.8
2017-05-25T05:53:37.648Z,946.8
2017-05-25T05:54:45.467Z,946.8
2017-05-25T05:55:53.550Z,946.8
2017-05-25T05:57:01.637Z,946.8
2017-05-25T05:58:09.795Z,946.8
2017-05-25T05:59:18.008Z,946.8
2017-05-25T06:00:25.991Z,946.8
2017-05-25T06:01:33.983Z,946.8
2017-05-25T06:02:42.073Z,946.8
2017-05-25T06:03:50.155Z,946.8
2017-05-25T06:04:58.365Z,946.8
2017-05-25T06:06:06.376Z,946.8
2017-05-25T06:07:14.410Z,946.9
2017-05-25T06:08:22.498Z,946.9
2017-05-25T06:09:30.582Z,946.8
2017-05-25T06:10:38.789Z,946.8
2017-05-25T06:11:46.782Z,946.9
2017-05-25T06:12:54.841Z,946.9
2017-05-25T06:14:02.933Z,946.9
2017-05-25T06:15:11.011Z,946.9
2017-05-25T06:16:19.344Z,946.9
2017-05-25T06:17:27.181Z,946.9
2017-05-25T06:18:35.298Z,946.9
2017-05-25T06:19:43.352Z,946.9
2017-05-25T06:20:51.559Z,946.9
2017-05-25T06:22:01.362Z,946.8
2017-05-25T06:23:07.806Z,946.8
2017-05-25T06:24:15.806Z,946.8
2017-05-25T06:25:23.851Z,946.8
2017-05-25T06:26:31.875Z,946.9
2017-05-25T06:27:40.016Z,946.9
2017-05-25T06:28:48.241Z,946.8
2017-05-25T06:29:56.395Z,946.9
2017-05-25T06:31:04.220Z,946.9
2017-05-25T06:32:12.441Z,946.8
2017-05-25T06:33:20.512Z,946.9
2017-05-25T06:34:28.473Z,946.9
2017-05-25T06:35:37.171Z,946.9
2017-05-25T06:36:44.765Z,946.9
2017-05-25T06:37:52.740Z,946.9
2017-05-25T06:39:00.938Z,946.9
2017-05-25T06:40:08.905Z,946.9
2017-05-25T06:41:17.098Z,946.9
2017-05-25T06:42:25.075Z,946.9
2017-05-25T06:43:33.160Z,946.9
2017-05-25T06:44:41.302Z,946.9
2017-05-25T06:45:49.332Z,947.0
2017-05-25T06:46:57.501Z,946.9
2017-05-25T06:48:05.597Z,947.0
2017-05-25T06:49:13.591Z,947.0
2017-05-25T06:50:21.795Z,947.0
2017-05-25T06:51:29.763Z,947.0
2017-05-25T06:52:37.967Z,947.0
2017-05-25T06:53:45.989Z,947.0
2017-05-25T06:54:54.016Z,947.0
2017-05-25T06:56:02.161Z,947.0
2017-05-25T06:57:10.194Z,947.0
2017-05-25T06:58:18.279Z,947.0
2017-05-25T06:59:26.413Z,947.0
2017-05-25T07:00:34.520Z,947.0
2017-05-25T07:01:42.593Z,947.0
2017-05-25T07:02:50.623Z,947.0
2017-05-25T07:03:58.707Z,947.1
2017-05-25T07:05:06.803Z,947.1
2017-05-25T07:06:14.938Z,947.0
2017-05-25T07:07:23.090Z,947.0
2017-05-25T07:08:31.177Z,947.0
2017-05-25T07:09:39.140Z,947.1
2017-05-25T07:10:47.233Z,947.1
2017-05-25T07:11:55.328Z,947.1
2017-05-25T07:13:03.478Z,947.1
2017-05-25T07:14:11.484Z,947.1
2017-05-25T07:15:19.570Z,947.1
2017-05-25T07:16:27.656Z,947.1
2017-05-25T07:17:35.743Z,947.1
2017-05-25T07:18:43.949Z,947.2
2017-05-25T07:19:51.916Z,947.1
2017-05-25T07:21:00.003Z,947.1
2017-05-25T07:22:08.087Z,947.1
2017-05-25T07:23:16.368Z,947.1
2017-05-25T07:24:24.386Z,947.1
2017-05-25T07:25:32.351Z,947.1
2017-05-25T07:26:40.434Z,947.1
2017-05-25T07:27:48.524Z,947.1
2017-05-25T07:28:56.629Z,947.1
2017-05-25T07:30:04.949Z,947.1
2017-05-25T07:31:12.780Z,947.1
2017-05-25T07:32:20.869Z,947.1
2017-05-25T07:33:28.955Z,947.1
2017-05-25T07:34:37.041Z,947.1
2017-05-25T07:35:45.341Z,947.2
2017-05-25T07:36:53.219Z,947.1
2017-05-25T07:38:01.300Z,947.2
2017-05-25T07:39:09.385Z,947.2
2017-05-25T07:40:17.528Z,947.1
2017-05-25T07:41:25.675Z,947.2
2017-05-25T07:42:33.642Z,947.2
2017-05-25T07:43:41.729Z,947.2
2017-05-25T07:44:49.816Z,947.2
2017-05-25T07:45:57.902Z,947.2
2017-05-25T07:47:06.109Z,947.1
2017-05-25T07:48:14.080Z,947.1
2017-05-25T07:49:22.166Z,947.2
2017-05-25T07:50:30.246Z,947.2
2017-05-25T07:51:38.332Z,947.2
2017-05-25T07:52:46.540Z,947.2
2017-05-25T07:53:54.505Z,947.2
2017-05-25T07:55:02.596Z,947.1
2017-05-25T07:56:10.798Z,947.2
2017-05-25T07:57:18.765Z,947.2
2017-05-25T07:58:27.158Z,947.2
2017-05-25T07:59:35.032Z,947.2
2017-05-25T08:00:43.019Z,947.2
2017-05-25T08:01:51.105Z,947.2
2017-05-25T08:02:59.191Z,947.1
2017-05-25T08:04:07.397Z,947.2
2017-05-25T08:05:15.477Z,947.1
2017-05-25T08:06:23.453Z,947.1
2017-05-25T08:07:31.539Z,947.1
2017-05-25T08:08:39.624Z,947.1
2017-05-25T08:09:47.831Z,947.1
2017-05-25T08:10:55.795Z,947.1
2017-05-25T08:12:03.937Z,947.1
2017-05-25T08:13:11.966Z,947.1
2017-05-25T08:14:20.054Z,947.1
2017-05-25T08:15:28.260Z,947.1
2017-05-25T08:16:36.294Z,947.1
2017-05-25T08:17:44.315Z,947.1
2017-05-25T08:18:52.399Z,947.1
2017-05-25T08:20:00.488Z,947.0
2017-05-25T08:21:08.696Z,947.0
2017-05-25T08:22:16.658Z,947.0
2017-05-25T08:23:24.741Z,947.0
2017-05-25T08:24:32.827Z,947.0
2017-05-25T08:25:40.912Z,947.0
2017-05-25T08:26:49.119Z,947.0
2017-05-25T08:27:57.207Z,947.0
2017-05-25T08:29:05.170Z,947.0
2017-05-25T08:30:13.256Z,947.0
2017-05-25T08:31:21.340Z,947.0
2017-05-25T08:32:29.548Z,947.0
2017-05-25T08:33:37.603Z,947.0
2017-05-25T08:34:45.691Z,947.0
2017-05-25T08:35:53.683Z,947.1
2017-05-25T08:37:01.769Z,947.1
2017-05-25T08:38:09.975Z,947.1
2017-05-25T08:39:17.939Z,947.1
2017-05-25T08:40:26.173Z,947.1
2017-05-25T08:41:34.106Z,947.1
2017-05-25T08:42:42.193Z,947.1
2017-05-25T08:43:50.334Z,947.1
2017-05-25T08:44:58.362Z,947.1
2017-05-25T08:46:06.527Z,947.1
2017-05-25T08:47:14.532Z,947.2
2017-05-25T08:48:22.620Z,947.2
2017-05-25T08:49:30.825Z,947.2
2017-05-25T08:50:38.788Z,947.1
2017-05-25T08:51:46.878Z,947.1
2017-05-25T08:52:54.987Z,947.1
2017-05-25T08:54:03.048Z,947.1
2017-05-25T08:55:11.252Z,947.1
2017-05-25T08:56:19.219Z,947.1
2017-05-25T08:57:27.310Z,947.1
2017-05-25T08:58:35.388Z,947.1
2017-05-25T08:59:43.595Z,947.2
2017-05-25T09:00:51.688Z,947.2
2017-05-25T09:01:59.645Z,947.2
2017-05-25T09:03:07.919Z,947.2
2017-05-25T09:04:15.812Z,947.2
2017-05-25T09:05:23.900Z,947.2
2017-05-25T09:06:32.106Z,947.2
2017-05-25T09:07:40.072Z,947.2
2017-05-25T09:08:48.155Z,947.2
2017-05-25T09:09:56.401Z,947.2
2017-05-25T09:11:04.332Z,947.2
2017-05-25T09:12:12.528Z,947.1
2017-05-25T09:13:20.492Z,947.1
2017-05-25T09:14:28.580Z,947.1
2017-05-25T09:15:36.958Z,947.1
2017-05-25T09:16:44.748Z,947.1
2017-05-25T09:17:52.956Z,947.1
2017-05-25T09:19:00.918Z,947.1
2017-05-25T09:20:09.001Z,947.2
2017-05-25T09:21:17.086Z,947.1
2017-05-25T09:22:25.329Z,947.2
2017-05-25T09:23:33.377Z,947.1
2017-05-25T09:24:41.342Z,947.1
2017-05-25T09:25:49.430Z,947.1
2017-05-25T09:26:57.513Z,947.1
2017-05-25T09:28:05.599Z,947.2
2017-05-25T09:29:13.756Z,947.2
2017-05-25T09:30:21.764Z,947.2
2017-05-25T09:31:29.974Z,947.1
2017-05-25T09:32:37.936Z,947.1
2017-05-25T09:33:46.021Z,947.2
2017-05-25T09:34:54.303Z,947.1
2017-05-25T09:36:02.193Z,947.1
2017-05-25T09:37:10.284Z,947.1
2017-05-25T09:38:18.365Z,947.1
2017-05-25T09:39:26.446Z,947.1
2017-05-25T09:40:34.650Z,947.1
2017-05-25T09:41:42.616Z,947.1
2017-05-25T09:42:50.698Z,947.1
2017-05-25T09:43:58.786Z,947.1
2017-05-25T09:45:06.871Z,947.1
2017-05-25T09:46:15.081Z,947.1
2017-05-25T09:47:23.173Z,947.0
2017-05-25T09:48:31.128Z,947.1
2017-05-25T09:49:39.214Z,947.0
2017-05-25T09:50:47.298Z,947.0
2017-05-25T09:51:55.441Z,947.0
2017-05-25T09:53:03.470Z,947.0
2017-05-25T09:54:11.556Z,947.0
2017-05-25T09:55:19.647Z,947.0
2017-05-25T09:56:27.725Z,947.0
2017-05-25T09:57:36.110Z,947.0
2017-05-25T09:58:43.893Z,947.0
2017-05-25T09:59:51.978Z,947.0
2017-05-25T10:01:00.067Z,947.0
2017-05-25T10:02:08.154Z,947.0
2017-05-25T10:03:16.357Z,947.0
2017-05-25T10:04:24.458Z,947.0
2017-05-25T10:05:32.410Z,947.0
2017-05-25T10:06:40.492Z,947.0
2017-05-25T10:07:48.578Z,947.0
2017-05-25T10:08:56.718Z,947.0
2017-05-25T10:10:04.909Z,947.0
2017-05-25T10:11:12.833Z,947.0
2017-05-25T10:12:20.920Z,947.0
2017-05-25T10:13:29.006Z,946.9
2017-05-25T10:14:37.210Z,946.9
2017-05-25T10:15:45.270Z,946.9
2017-05-25T10:16:53.368Z,946.9
2017-05-25T10:18:01.348Z,946.9
2017-05-25T10:19:09.489Z,946.9
2017-05-25T10:20:17.640Z,946.9
2017-05-25T10:21:25.606Z,946.9
2017-05-25T10:22:33.691Z,946.9
2017-05-25T10:23:41.778Z,946.9
2017-05-25T10:24:49.863Z,946.9
2017-05-25T10:25:58.068Z,946.8
2017-05-25T10:27:06.032Z,946.8
2017-05-25T10:28:14.120Z,946.8
2017-05-25T10:29:22.209Z,946.9
2017-05-25T10:30:30.291Z,946.8
2017-05-25T10:31:38.497Z,946.8
2017-05-25T10:32:46.468Z,946.8
2017-05-25T10:33:54.556Z,946.8
2017-05-25T10:35:02.758Z,946.7
2017-05-25T10:36:10.723Z,946.7
2017-05-25T10:37:18.864Z,946.7
2017-05-25T10:38:26.897Z,946.7
2017-05-25T10:39:35.140Z,946.6
2017-05-25T10:40:43.073Z,946.7
2017-05-25T10:41:51.157Z,946.6
2017-05-25T10:42:59.365Z,946.7
2017-05-25T10:44:07.331Z,946.7
2017-05-25T10:45:15.547Z,946.6
2017-05-25T10:46:23.660Z,946.6
2017-05-25T10:47:31.586Z,946.6
2017-05-25T10:48:39.796Z,946.6
2017-05-25T10:49:47.759Z,946.6
2017-05-25T10:50:55.964Z,946.5
2017-05-25T10:52:04.044Z,946.5
2017-05-25T10:53:12.019Z,946.5
2017-05-25T10:54:20.234Z,946.5
2017-05-25T10:55:28.191Z,946.6
2017-05-25T10:56:36.279Z,946.6
2017-05-25T10:57:44.389Z,946.5
2017-05-25T10:58:52.501Z,946.5
2017-05-25T11:00:00.889Z,946.5
2017-05-25T11:01:08.619Z,946.5
2017-05-25T11:02:16.711Z,946.5
2017-05-25T11:03:24.797Z,946.6
2017-05-25T11:04:32.883Z,946.5
2017-05-25T11:05:41.088Z,946.5
2017-05-25T11:06:49.110Z,946.5
2017-05-25T11:07:57.144Z,946.5
2017-05-25T11:09:05.229Z,946.5
2017-05-25T11:10:13.315Z,946.5
2017-05-25T11:11:21.458Z,946.5
2017-05-25T11:12:29.486Z,946.5
2017-05-25T11:13:37.576Z,946.5
2017-05-25T11:14:45.858Z,946.4
2017-05-25T11:15:53.746Z,946.4
2017-05-25T11:17:01.996Z,946.4
2017-05-25T11:18:09.920Z,946.3
2017-05-25T11:19:18.007Z,946.4
2017-05-25T11:20:26.092Z,946.4
2017-05-25T11:21:34.325Z,946.4
2017-05-25T11:22:42.333Z,946.4
2017-05-25T11:23:50.361Z,946.5
2017-05-25T11:24:58.447Z,946.4
2017-05-25T11:26:06.534Z,946.4
2017-05-25T11:27:14.652Z,946.4
2017-05-25T11:28:23.002Z,946.4
2017-05-25T11:29:30.796Z,946.4
2017-05-25T11:30:38.883Z,946.4
2017-05-25T11:31:46.970Z,946.5
2017-05-25T11:32:55.054Z,946.5
2017-05-25T11:34:03.368Z,946.5
2017-05-25T11:35:11.225Z,946.5
2017-05-25T11:36:19.314Z,946.5
2017-05-25T11:37:27.401Z,946.5
2017-05-25T11:38:35.607Z,946.5
2017-05-25T11:39:43.629Z,946.5
2017-05-25T11:40:51.664Z,946.5
2017-05-25T11:41:59.751Z,946.5
2017-05-25T11:43:07.840Z,946.5
2017-05-25T11:44:15.925Z,946.5
2017-05-25T11:45:24.089Z,946.5
2017-05-25T11:46:32.453Z,946.5
2017-05-25T11:47:40.519Z,946.5
2017-05-25T11:48:48.275Z,946.5
2017-05-25T11:49:56.357Z,946.5
2017-05-25T11:51:04.578Z,946.5
2017-05-25T11:52:12.552Z,946.5
2017-05-25T11:53:20.637Z,946.5
2017-05-25T11:54:28.779Z,946.5
2017-05-25T11:55:36.812Z,946.5
2017-05-25T11:56:45.215Z,946.5
2017-05-25T11:57:52.989Z,946.5
2017-05-25T11:59:01.069Z,946.4
2017-05-25T12:00:09.155Z,946.5
2017-05-25T12:01:17.241Z,946.4
2017-05-25T12:02:25.478Z,946.4
2017-05-25T12:03:33.612Z,946.4
2017-05-25T12:04:41.504Z,946.4
2017-05-25T12:05:49.586Z,946.4
2017-05-25T12:06:57.672Z,946.3
2017-05-25T12:08:05.879Z,946.3
2017-05-25T12:09:13.951Z,946.3
2017-05-25T12:10:22.054Z,946.3
2017-05-25T12:11:30.022Z,946.3
2017-05-25T12:12:38.107Z,946.3
2017-05-25T12:13:46.317Z,946.2
2017-05-25T12:14:54.327Z,946.2
2017-05-25T12:16:02.438Z,946.2
2017-05-25T12:17:10.468Z,946.2
2017-05-25T12:18:18.548Z,946.2
2017-05-25T12:19:26.845Z,946.1
2017-05-25T12:20:34.726Z,946.1
2017-05-25T12:21:42.810Z,946.1
2017-05-25T12:22:50.904Z,946.1
2017-05-25T12:23:58.982Z,946.1
2017-05-25T12:25:07.190Z,946.1
2017-05-25T12:26:15.279Z,946.1
2017-05-25T12:27:23.243Z,946.1
2017-05-25T12:28:31.330Z,946.1
2017-05-25T12:29:39.417Z,946.1
2017-05-25T12:30:47.561Z,946.1
2017-05-25T12:31:55.588Z,946.1
2017-05-25T12:33:03.677Z,946.1
2017-05-25T12:34:11.761Z,946.1
2017-05-25T12:35:19.847Z,946.1
2017-05-25T12:36:28.053Z,946.1
2017-05-25T12:37:36.019Z,946.1
2017-05-25T12:38:44.257Z,946.1
2017-05-25T12:39:52.195Z,946.1
2017-05-25T12:41:00.287Z,946.1
2017-05-25T12:42:08.493Z,946.0
2017-05-25T12:43:16.462Z,946.0
2017-05-25T12:44:24.549Z,946.0
2017-05-25T12:45:32.633Z,946.1
2017-05-25T12:46:40.722Z,946.0
2017-05-25T12:47:48.927Z,946.0
2017-05-25T12:48:56.898Z,946.0
2017-05-25T12:50:04.980Z,946.1
2017-05-25T12:51:13.067Z,946.0
2017-05-25T12:52:21.154Z,946.0
2017-05-25T12:53:29.362Z,946.0
2017-05-25T12:54:37.329Z,946.0
2017-05-25T12:55:45.416Z,946.0
2017-05-25T12:56:53.502Z,946.0
2017-05-25T12:58:01.707Z,946.0
2017-05-25T12:59:09.796Z,946.0
2017-05-25T13:00:17.761Z,946.0
2017-05-25T13:01:26.031Z,946.0
2017-05-25T13:02:33.939Z,945.9
2017-05-25T13:03:42.026Z,945.9
2017-05-25T13:04:50.234Z,946.0
2017-05-25T13:05:58.203Z,946.0
2017-05-25T13:07:06.286Z,945.9
2017-05-25T13:08:14.566Z,946.0
2017-05-25T13:09:22.460Z,946.0
2017-05-25T13:10:30.667Z,946.0
2017-05-25T13:11:38.635Z,946.0
2017-05-25T13:12:46.723Z,946.0
2017-05-25T13:13:55.118Z,946.0
2017-05-25T13:15:02.897Z,946.0
2017-05-25T13:16:11.039Z,946.0
2017-05-25T13:17:19.119Z,945.9
2017-05-25T13:18:27.156Z,946.0
2017-05-25T13:19:35.242Z,945.9
2017-05-25T13:20:43.455Z,945.9
2017-05-25T13:21:51.543Z,945.9
2017-05-25T13:22:59.503Z,945.9
2017-05-25T13:24:07.597Z,945.8
2017-05-25T13:25:15.677Z,945.8
2017-05-25T13:26:23.864Z,945.8
2017-05-25T13:27:31.907Z,945.8
2017-05-25T13:28:39.940Z,945.8
2017-05-25T13:29:48.141Z,945.8
2017-05-25T13:30:56.110Z,945.7
2017-05-25T13:32:04.194Z,945.7
2017-05-25T13:33:12.454Z,945.7
2017-05-25T13:34:20.371Z,945.7
2017-05-25T13:35:28.458Z,945.7
2017-05-25T13:36:36.546Z,945.7
2017-05-25T13:37:44.633Z,945.7
2017-05-25T13:38:52.776Z,945.7
2017-05-25T13:40:00.803Z,945.7
2017-05-25T13:41:08.891Z,945.7
2017-05-25T13:42:16.980Z,945.6
2017-05-25T13:43:25.067Z,945.6
2017-05-25T13:44:33.271Z,945.6
2017-05-25T13:45:41.361Z,945.5
2017-05-25T13:46:49.328Z,945.5
2017-05-25T13:47:57.415Z,945.6
2017-05-25T13:49:05.499Z,945.6
2017-05-25T13:50:13.769Z,945.6
2017-05-25T13:51:21.674Z,945.6
2017-05-25T13:52:29.765Z,945.6
2017-05-25T13:53:37.848Z,945.6
2017-05-25T13:54:45.935Z,945.6
2017-05-25T13:55:54.173Z,945.6
2017-05-25T13:57:02.109Z,945.5
2017-05-25T13:58:10.192Z,945.6
2017-05-25T13:59:18.290Z,945.6
2017-05-25T14:00:26.373Z,945.6
2017-05-25T14:01:34.619Z,945.6
2017-05-25T14:02:42.545Z,945.6
2017-05-25T14:03:50.630Z,945.6
2017-05-25T14:04:58.716Z,945.6
2017-05-25T14:06:06.812Z,945.6
2017-05-25T14:07:15.016Z,945.6
2017-05-25T14:08:22.983Z,945.6
2017-05-25T14:09:31.069Z,945.6
2017-05-25T14:10:39.165Z,945.5
2017-05-25T14:11:47.249Z,945.6
2017-05-25T14:12:55.459Z,945.5
2017-05-25T14:14:03.419Z,945.5
2017-05-25T14:15:11.510Z,945.5
2017-05-25T14:16:19.596Z,945.5
2017-05-25T14:17:27.809Z,945.5
2017-05-25T14:18:36.178Z,945.5
2017-05-25T14:19:43.857Z,945.5
2017-05-25T14:20:51.943Z,945.5
2017-05-25T14:22:00.033Z,945.5
2017-05-25T14:23:08.122Z,945.5
2017-05-25T14:24:16.264Z,945.5
2017-05-25T14:25:24.411Z,945.5
2017-05-25T14:26:32.378Z,945.5
2017-05-25T14:27:40.463Z,945.5
2017-05-25T14:28:48.553Z,945.5
2017-05-25T14:29:56.759Z,945.5
2017-05-25T14:31:04.726Z,945.5
2017-05-25T14:32:12.864Z,945.5
2017-05-25T14:33:21.022Z,945.5
2017-05-25T14:34:28.988Z,945.5
2017-05-25T14:35:37.131Z,945.5
2017-05-25T14:36:45.159Z,945.5